sensor_id;sensor_type;location;lat;lon;timestamp;P1;durP1;ratioP1;P2;durP2;ratioP2
19971;SDS011;10147;16.402;102.848;2023-03-16T00:01:57;124.93;;;87.95;;
19971;SDS011;10147;16.402;102.848;2023-03-16T00:04:28;127.38;;;87.45;;
19971;SDS011;10147;16.402;102.848;2023-03-16T00:06:59;122.13;;;89.13;;
19971;SDS011;10147;16.402;102.848;2023-03-16T00:09:29;124.47;;;84.82;;
19971;SDS011;10147;16.402;102.848;2023-03-16T00:12:00;117.03;;;84.50;;
19971;SDS011;10147;16.402;102.848;2023-03-16T00:14:33;108.50;;;82.82;;
19971;SDS011;10147;16.402;102.848;2023-03-16T00:17:03;112.10;;;81.80;;
19971;SDS011;10147;16.402;102.848;2023-03-16T00:19:34;113.00;;;84.65;;
19971;SDS011;10147;16.402;102.848;2023-03-16T00:22:06;116.93;;;81.88;;
19971;SDS011;10147;16.402;102.848;2023-03-16T00:24:36;121.07;;;91.45;;
19971;SDS011;10147;16.402;102.848;2023-03-16T00:27:08;120.70;;;91.82;;
19971;SDS011;10147;16.402;102.848;2023-03-16T00:29:43;119.80;;;87.30;;
19971;SDS011;10147;16.402;102.848;2023-03-16T00:32:15;113.25;;;84.43;;
19971;SDS011;10147;16.402;102.848;2023-03-16T00:34:47;109.70;;;84.22;;
19971;SDS011;10147;16.402;102.848;2023-03-16T00:37:18;108.25;;;80.40;;
19971;SDS011;10147;16.402;102.848;2023-03-16T00:39:49;117.45;;;81.32;;
19971;SDS011;10147;16.402;102.848;2023-03-16T00:42:20;112.50;;;79.50;;
19971;SDS011;10147;16.402;102.848;2023-03-16T00:44:58;106.88;;;78.00;;
19971;SDS011;10147;16.402;102.848;2023-03-16T00:47:30;102.38;;;76.78;;
19971;SDS011;10147;16.402;102.848;2023-03-16T00:50:00;103.40;;;75.88;;
19971;SDS011;10147;16.402;102.848;2023-03-16T00:52:32;102.32;;;72.90;;
19971;SDS011;10147;16.402;102.848;2023-03-16T00:55:03;95.50;;;70.40;;
19971;SDS011;10147;16.402;102.848;2023-03-16T00:57:33;94.40;;;67.30;;
19971;SDS011;10147;16.402;102.848;2023-03-16T01:00:04;98.57;;;69.40;;
19971;SDS011;10147;16.402;102.848;2023-03-16T01:02:44;95.70;;;73.13;;
19971;SDS011;10147;16.402;102.848;2023-03-16T01:05:14;90.75;;;67.97;;
19971;SDS011;10147;16.402;102.848;2023-03-16T01:07:45;86.00;;;65.13;;
19971;SDS011;10147;16.402;102.848;2023-03-16T01:10:15;87.75;;;62.90;;
19971;SDS011;10147;16.402;102.848;2023-03-16T01:12:45;83.47;;;61.28;;
19971;SDS011;10147;16.402;102.848;2023-03-16T01:15:16;82.20;;;61.67;;
19971;SDS011;10147;16.402;102.848;2023-03-16T01:17:47;89.90;;;61.55;;
19971;SDS011;10147;16.402;102.848;2023-03-16T01:20:19;90.32;;;61.58;;
19971;SDS011;10147;16.402;102.848;2023-03-16T01:22:50;86.60;;;62.83;;
19971;SDS011;10147;16.402;102.848;2023-03-16T01:25:19;73.53;;;57.50;;
19971;SDS011;10147;16.402;102.848;2023-03-16T01:27:51;79.15;;;57.75;;
19971;SDS011;10147;16.402;102.848;2023-03-16T01:30:21;78.05;;;59.33;;
19971;SDS011;10147;16.402;102.848;2023-03-16T01:32:52;79.43;;;58.13;;
19971;SDS011;10147;16.402;102.848;2023-03-16T01:35:22;71.15;;;54.92;;
19971;SDS011;10147;16.402;102.848;2023-03-16T01:37:53;78.40;;;58.13;;
19971;SDS011;10147;16.402;102.848;2023-03-16T01:40:25;99.47;;;73.55;;
19971;SDS011;10147;16.402;102.848;2023-03-16T01:43:00;87.60;;;72.88;;
19971;SDS011;10147;16.402;102.848;2023-03-16T01:48:26;85.68;;;59.20;;
19971;SDS011;10147;16.402;102.848;2023-03-16T01:50:56;71.45;;;53.35;;
19971;SDS011;10147;16.402;102.848;2023-03-16T01:53:27;67.60;;;51.90;;
19971;SDS011;10147;16.402;102.848;2023-03-16T01:55:58;74.53;;;53.55;;
19971;SDS011;10147;16.402;102.848;2023-03-16T01:58:29;71.80;;;51.50;;
19971;SDS011;10147;16.402;102.848;2023-03-16T02:01:03;66.43;;;49.45;;
19971;SDS011;10147;16.402;102.848;2023-03-16T02:03:34;67.40;;;49.47;;
19971;SDS011;10147;16.402;102.848;2023-03-16T02:06:15;68.60;;;49.53;;
19971;SDS011;10147;16.402;102.848;2023-03-16T02:08:51;63.92;;;48.60;;
19971;SDS011;10147;16.402;102.848;2023-03-16T02:11:23;61.28;;;47.40;;
19971;SDS011;10147;16.402;102.848;2023-03-16T02:14:07;65.32;;;46.50;;
19971;SDS011;10147;16.402;102.848;2023-03-16T02:16:39;60.13;;;46.65;;
19971;SDS011;10147;16.402;102.848;2023-03-16T02:19:13;62.75;;;45.90;;
19971;SDS011;10147;16.402;102.848;2023-03-16T02:21:47;54.15;;;44.90;;
19971;SDS011;10147;16.402;102.848;2023-03-16T02:24:22;58.60;;;44.95;;
19971;SDS011;10147;16.402;102.848;2023-03-16T02:27:03;55.33;;;41.72;;
19971;SDS011;10147;16.402;102.848;2023-03-16T02:32:32;52.08;;;42.83;;
19971;SDS011;10147;16.402;102.848;2023-03-16T02:35:05;53.55;;;40.67;;
19971;SDS011;10147;16.402;102.848;2023-03-16T02:37:36;56.22;;;41.80;;
19971;SDS011;10147;16.402;102.848;2023-03-16T02:43:10;53.85;;;41.83;;
19971;SDS011;10147;16.402;102.848;2023-03-16T02:45:51;51.63;;;39.83;;
19971;SDS011;10147;16.402;102.848;2023-03-16T02:48:27;49.47;;;39.28;;
19971;SDS011;10147;16.402;102.848;2023-03-16T02:51:00;52.22;;;40.08;;
19971;SDS011;10147;16.402;102.848;2023-03-16T02:53:30;50.67;;;38.90;;
19971;SDS011;10147;16.402;102.848;2023-03-16T02:56:02;54.15;;;40.33;;
19971;SDS011;10147;16.402;102.848;2023-03-16T02:58:34;57.42;;;38.08;;
19971;SDS011;10147;16.402;102.848;2023-03-16T03:01:10;48.80;;;37.92;;
19971;SDS011;10147;16.402;102.848;2023-03-16T03:03:40;47.10;;;37.42;;
19971;SDS011;10147;16.402;102.848;2023-03-16T03:06:11;47.95;;;37.90;;
19971;SDS011;10147;16.402;102.848;2023-03-16T03:08:41;50.47;;;35.95;;
19971;SDS011;10147;16.402;102.848;2023-03-16T03:11:12;54.92;;;41.88;;
19971;SDS011;10147;16.402;102.848;2023-03-16T03:13:42;52.35;;;37.38;;
19971;SDS011;10147;16.402;102.848;2023-03-16T03:16:18;48.28;;;36.28;;
19971;SDS011;10147;16.402;102.848;2023-03-16T03:18:49;52.22;;;37.70;;
19971;SDS011;10147;16.402;102.848;2023-03-16T03:21:24;54.88;;;36.70;;
19971;SDS011;10147;16.402;102.848;2023-03-16T03:23:54;46.40;;;36.05;;
19971;SDS011;10147;16.402;102.848;2023-03-16T03:26:24;44.03;;;35.28;;
19971;SDS011;10147;16.402;102.848;2023-03-16T03:28:58;44.38;;;36.25;;
19971;SDS011;10147;16.402;102.848;2023-03-16T03:31:28;43.03;;;35.05;;
19971;SDS011;10147;16.402;102.848;2023-03-16T03:33:58;39.78;;;33.42;;
19971;SDS011;10147;16.402;102.848;2023-03-16T03:36:35;46.55;;;34.53;;
19971;SDS011;10147;16.402;102.848;2023-03-16T03:39:06;48.42;;;35.42;;
19971;SDS011;10147;16.402;102.848;2023-03-16T03:41:38;44.45;;;34.20;;
19971;SDS011;10147;16.402;102.848;2023-03-16T03:44:10;42.40;;;33.75;;
19971;SDS011;10147;16.402;102.848;2023-03-16T03:46:41;46.72;;;33.85;;
19971;SDS011;10147;16.402;102.848;2023-03-16T03:49:11;41.72;;;34.38;;
19971;SDS011;10147;16.402;102.848;2023-03-16T03:51:43;40.83;;;32.92;;
19971;SDS011;10147;16.402;102.848;2023-03-16T03:54:17;44.10;;;32.25;;
19971;SDS011;10147;16.402;102.848;2023-03-16T03:56:55;47.58;;;35.97;;
19971;SDS011;10147;16.402;102.848;2023-03-16T03:59:26;42.03;;;32.05;;
19971;SDS011;10147;16.402;102.848;2023-03-16T04:02:18;40.83;;;32.53;;
19971;SDS011;10147;16.402;102.848;2023-03-16T04:04:51;50.83;;;37.92;;
19971;SDS011;10147;16.402;102.848;2023-03-16T04:07:23;42.63;;;34.78;;
19971;SDS011;10147;16.402;102.848;2023-03-16T04:09:58;41.50;;;34.97;;
19971;SDS011;10147;16.402;102.848;2023-03-16T04:12:34;43.30;;;35.70;;
19971;SDS011;10147;16.402;102.848;2023-03-16T04:15:06;38.08;;;33.80;;
19971;SDS011;10147;16.402;102.848;2023-03-16T04:17:47;43.70;;;31.73;;
19971;SDS011;10147;16.402;102.848;2023-03-16T04:20:18;41.28;;;32.00;;
19971;SDS011;10147;16.402;102.848;2023-03-16T04:22:48;40.17;;;34.42;;
19971;SDS011;10147;16.402;102.848;2023-03-16T04:25:29;38.83;;;33.65;;
19971;SDS011;10147;16.402;102.848;2023-03-16T04:28:02;38.90;;;34.78;;
19971;SDS011;10147;16.402;102.848;2023-03-16T04:30:35;40.60;;;34.42;;
19971;SDS011;10147;16.402;102.848;2023-03-16T04:33:17;41.35;;;32.42;;
19971;SDS011;10147;16.402;102.848;2023-03-16T04:35:48;45.42;;;33.10;;
19971;SDS011;10147;16.402;102.848;2023-03-16T04:38:21;51.40;;;46.28;;
19971;SDS011;10147;16.402;102.848;2023-03-16T04:40:59;50.75;;;45.08;;
19971;SDS011;10147;16.402;102.848;2023-03-16T04:43:34;53.42;;;43.22;;
19971;SDS011;10147;16.402;102.848;2023-03-16T04:46:24;47.75;;;42.55;;
19971;SDS011;10147;16.402;102.848;2023-03-16T04:48:56;44.00;;;32.97;;
19971;SDS011;10147;16.402;102.848;2023-03-16T04:51:28;52.88;;;47.42;;
19971;SDS011;10147;16.402;102.848;2023-03-16T04:54:08;50.08;;;44.60;;
19971;SDS011;10147;16.402;102.848;2023-03-16T04:56:42;42.78;;;33.63;;
19971;SDS011;10147;16.402;102.848;2023-03-16T04:59:32;49.90;;;34.00;;
19971;SDS011;10147;16.402;102.848;2023-03-16T05:02:17;46.22;;;33.03;;
19971;SDS011;10147;16.402;102.848;2023-03-16T05:04:48;43.58;;;33.83;;
19971;SDS011;10147;16.402;102.848;2023-03-16T05:07:19;39.35;;;32.13;;
19971;SDS011;10147;16.402;102.848;2023-03-16T05:09:52;44.17;;;32.97;;
19971;SDS011;10147;16.402;102.848;2023-03-16T05:12:23;46.17;;;33.95;;
19971;SDS011;10147;16.402;102.848;2023-03-16T05:14:59;42.10;;;34.17;;
19971;SDS011;10147;16.402;102.848;2023-03-16T05:17:40;46.28;;;35.97;;
19971;SDS011;10147;16.402;102.848;2023-03-16T05:20:25;46.97;;;34.88;;
19971;SDS011;10147;16.402;102.848;2023-03-16T05:22:59;44.17;;;34.22;;
19971;SDS011;10147;16.402;102.848;2023-03-16T05:25:33;43.20;;;34.03;;
19971;SDS011;10147;16.402;102.848;2023-03-16T05:28:06;44.42;;;34.17;;
19971;SDS011;10147;16.402;102.848;2023-03-16T05:30:56;40.78;;;33.65;;
19971;SDS011;10147;16.402;102.848;2023-03-16T05:33:26;46.63;;;36.78;;
19971;SDS011;10147;16.402;102.848;2023-03-16T05:36:03;45.20;;;36.40;;
19971;SDS011;10147;16.402;102.848;2023-03-16T05:38:35;45.45;;;35.20;;
19971;SDS011;10147;16.402;102.848;2023-03-16T05:41:09;43.25;;;34.45;;
19971;SDS011;10147;16.402;102.848;2023-03-16T05:43:54;41.50;;;34.75;;
19971;SDS011;10147;16.402;102.848;2023-03-16T05:46:31;47.60;;;34.05;;
19971;SDS011;10147;16.402;102.848;2023-03-16T05:49:04;45.72;;;34.35;;
19971;SDS011;10147;16.402;102.848;2023-03-16T05:51:34;44.95;;;33.95;;
19971;SDS011;10147;16.402;102.848;2023-03-16T05:54:06;49.63;;;35.88;;
19971;SDS011;10147;16.402;102.848;2023-03-16T05:56:42;43.83;;;34.60;;
19971;SDS011;10147;16.402;102.848;2023-03-16T05:59:14;50.40;;;35.90;;
19971;SDS011;10147;16.402;102.848;2023-03-16T06:01:56;39.88;;;33.60;;
19971;SDS011;10147;16.402;102.848;2023-03-16T06:04:26;45.08;;;34.00;;
19971;SDS011;10147;16.402;102.848;2023-03-16T06:06:57;43.00;;;33.55;;
19971;SDS011;10147;16.402;102.848;2023-03-16T06:09:29;47.25;;;35.13;;
19971;SDS011;10147;16.402;102.848;2023-03-16T06:12:05;47.40;;;35.00;;
19971;SDS011;10147;16.402;102.848;2023-03-16T06:14:38;49.00;;;35.30;;
19971;SDS011;10147;16.402;102.848;2023-03-16T06:17:09;47.20;;;32.92;;
19971;SDS011;10147;16.402;102.848;2023-03-16T06:19:41;42.90;;;34.05;;
19971;SDS011;10147;16.402;102.848;2023-03-16T06:22:12;48.25;;;35.38;;
19971;SDS011;10147;16.402;102.848;2023-03-16T06:24:43;41.08;;;35.00;;
19971;SDS011;10147;16.402;102.848;2023-03-16T06:27:14;43.13;;;34.65;;
19971;SDS011;10147;16.402;102.848;2023-03-16T06:30:03;47.85;;;37.33;;
19971;SDS011;10147;16.402;102.848;2023-03-16T06:32:36;40.05;;;35.15;;
19971;SDS011;10147;16.402;102.848;2023-03-16T06:35:07;46.90;;;34.83;;
19971;SDS011;10147;16.402;102.848;2023-03-16T06:37:43;41.38;;;33.60;;
19971;SDS011;10147;16.402;102.848;2023-03-16T06:40:26;40.63;;;34.25;;
19971;SDS011;10147;16.402;102.848;2023-03-16T06:42:56;44.00;;;34.10;;
19971;SDS011;10147;16.402;102.848;2023-03-16T06:45:28;44.13;;;34.95;;
19971;SDS011;10147;16.402;102.848;2023-03-16T06:47:59;45.55;;;34.95;;
19971;SDS011;10147;16.402;102.848;2023-03-16T06:50:30;45.33;;;34.80;;
19971;SDS011;10147;16.402;102.848;2023-03-16T06:53:00;41.65;;;34.20;;
19971;SDS011;10147;16.402;102.848;2023-03-16T06:55:32;44.67;;;34.17;;
19971;SDS011;10147;16.402;102.848;2023-03-16T06:58:04;41.80;;;32.97;;
19971;SDS011;10147;16.402;102.848;2023-03-16T07:00:34;44.22;;;33.05;;
19971;SDS011;10147;16.402;102.848;2023-03-16T07:03:05;44.67;;;35.83;;
19971;SDS011;10147;16.402;102.848;2023-03-16T07:05:38;43.60;;;35.13;;
19971;SDS011;10147;16.402;102.848;2023-03-16T07:08:08;42.75;;;36.42;;
19971;SDS011;10147;16.402;102.848;2023-03-16T07:10:40;47.00;;;34.65;;
19971;SDS011;10147;16.402;102.848;2023-03-16T07:13:10;41.85;;;34.83;;
19971;SDS011;10147;16.402;102.848;2023-03-16T07:15:41;39.25;;;34.92;;
19971;SDS011;10147;16.402;102.848;2023-03-16T07:18:12;43.03;;;34.05;;
19971;SDS011;10147;16.402;102.848;2023-03-16T07:20:44;43.53;;;35.53;;
19971;SDS011;10147;16.402;102.848;2023-03-16T07:23:15;40.58;;;34.45;;
19971;SDS011;10147;16.402;102.848;2023-03-16T07:25:46;42.45;;;34.03;;
19971;SDS011;10147;16.402;102.848;2023-03-16T07:28:17;43.63;;;35.58;;
19971;SDS011;10147;16.402;102.848;2023-03-16T07:30:50;44.50;;;34.45;;
19971;SDS011;10147;16.402;102.848;2023-03-16T07:33:36;43.63;;;33.97;;
19971;SDS011;10147;16.402;102.848;2023-03-16T07:36:10;40.53;;;34.58;;
19971;SDS011;10147;16.402;102.848;2023-03-16T07:38:48;43.83;;;35.15;;
19971;SDS011;10147;16.402;102.848;2023-03-16T07:41:19;43.38;;;33.50;;
19971;SDS011;10147;16.402;102.848;2023-03-16T07:43:50;45.65;;;33.97;;
19971;SDS011;10147;16.402;102.848;2023-03-16T07:46:23;40.33;;;34.58;;
19971;SDS011;10147;16.402;102.848;2023-03-16T07:48:55;41.85;;;35.13;;
19971;SDS011;10147;16.402;102.848;2023-03-16T07:51:26;41.08;;;36.65;;
19971;SDS011;10147;16.402;102.848;2023-03-16T07:53:57;44.60;;;37.75;;
19971;SDS011;10147;16.402;102.848;2023-03-16T07:56:31;41.28;;;35.85;;
19971;SDS011;10147;16.402;102.848;2023-03-16T07:59:34;41.08;;;36.65;;
19971;SDS011;10147;16.402;102.848;2023-03-16T08:02:11;46.38;;;36.38;;
19971;SDS011;10147;16.402;102.848;2023-03-16T08:04:45;40.63;;;35.78;;
19971;SDS011;10147;16.402;102.848;2023-03-16T08:07:17;42.28;;;35.78;;
19971;SDS011;10147;16.402;102.848;2023-03-16T08:09:56;45.60;;;37.25;;
19971;SDS011;10147;16.402;102.848;2023-03-16T08:12:34;44.80;;;37.80;;
19971;SDS011;10147;16.402;102.848;2023-03-16T08:15:05;40.67;;;34.33;;
19971;SDS011;10147;16.402;102.848;2023-03-16T08:17:36;43.88;;;36.67;;
19971;SDS011;10147;16.402;102.848;2023-03-16T08:20:14;46.53;;;36.80;;
19971;SDS011;10147;16.402;102.848;2023-03-16T08:22:46;41.58;;;34.20;;
19971;SDS011;10147;16.402;102.848;2023-03-16T08:25:22;41.85;;;35.72;;
19971;SDS011;10147;16.402;102.848;2023-03-16T08:28:03;42.65;;;35.20;;
19971;SDS011;10147;16.402;102.848;2023-03-16T08:30:42;45.42;;;37.42;;
19971;SDS011;10147;16.402;102.848;2023-03-16T08:33:29;45.47;;;37.70;;
19971;SDS011;10147;16.402;102.848;2023-03-16T08:36:04;45.95;;;39.38;;
19971;SDS011;10147;16.402;102.848;2023-03-16T08:38:35;42.47;;;36.88;;
19971;SDS011;10147;16.402;102.848;2023-03-16T08:41:09;46.22;;;35.78;;
19971;SDS011;10147;16.402;102.848;2023-03-16T08:43:44;49.03;;;38.08;;
19971;SDS011;10147;16.402;102.848;2023-03-16T08:46:14;53.10;;;38.55;;
19971;SDS011;10147;16.402;102.848;2023-03-16T08:48:51;46.85;;;38.22;;
19971;SDS011;10147;16.402;102.848;2023-03-16T08:51:24;43.42;;;37.20;;
19971;SDS011;10147;16.402;102.848;2023-03-16T08:53:57;44.33;;;37.95;;
19971;SDS011;10147;16.402;102.848;2023-03-16T08:56:27;50.47;;;41.42;;
19971;SDS011;10147;16.402;102.848;2023-03-16T08:58:58;47.42;;;38.72;;
19971;SDS011;10147;16.402;102.848;2023-03-16T09:01:28;46.55;;;35.78;;
19971;SDS011;10147;16.402;102.848;2023-03-16T09:04:00;43.50;;;36.15;;
19971;SDS011;10147;16.402;102.848;2023-03-16T09:06:31;42.55;;;36.92;;
19971;SDS011;10147;16.402;102.848;2023-03-16T09:09:02;44.42;;;35.10;;
19971;SDS011;10147;16.402;102.848;2023-03-16T09:11:32;41.13;;;33.50;;
19971;SDS011;10147;16.402;102.848;2023-03-16T09:14:03;40.88;;;33.63;;
19971;SDS011;10147;16.402;102.848;2023-03-16T09:16:34;41.90;;;35.47;;
19971;SDS011;10147;16.402;102.848;2023-03-16T09:19:06;46.55;;;34.38;;
19971;SDS011;10147;16.402;102.848;2023-03-16T09:21:38;50.55;;;36.20;;
19971;SDS011;10147;16.402;102.848;2023-03-16T09:24:08;42.05;;;34.95;;
19971;SDS011;10147;16.402;102.848;2023-03-16T09:26:39;43.30;;;36.92;;
19971;SDS011;10147;16.402;102.848;2023-03-16T09:29:10;44.25;;;34.78;;
19971;SDS011;10147;16.402;102.848;2023-03-16T09:31:40;45.13;;;35.17;;
19971;SDS011;10147;16.402;102.848;2023-03-16T09:34:11;53.05;;;34.60;;
19971;SDS011;10147;16.402;102.848;2023-03-16T09:36:41;48.05;;;35.17;;
19971;SDS011;10147;16.402;102.848;2023-03-16T09:39:12;47.75;;;33.58;;
19971;SDS011;10147;16.402;102.848;2023-03-16T09:41:52;50.15;;;33.25;;
19971;SDS011;10147;16.402;102.848;2023-03-16T09:47:32;41.92;;;34.72;;
19971;SDS011;10147;16.402;102.848;2023-03-16T09:50:06;46.22;;;32.53;;
19971;SDS011;10147;16.402;102.848;2023-03-16T09:52:45;41.05;;;32.88;;
19971;SDS011;10147;16.402;102.848;2023-03-16T09:55:35;49.28;;;37.00;;
19971;SDS011;10147;16.402;102.848;2023-03-16T09:58:12;53.30;;;39.25;;
19971;SDS011;10147;16.402;102.848;2023-03-16T10:00:55;55.85;;;38.80;;
19971;SDS011;10147;16.402;102.848;2023-03-16T10:03:53;47.35;;;39.13;;
19971;SDS011;10147;16.402;102.848;2023-03-16T10:09:51;55.60;;;37.35;;
19971;SDS011;10147;16.402;102.848;2023-03-16T10:12:31;56.38;;;40.75;;
19971;SDS011;10147;16.402;102.848;2023-03-16T10:15:24;55.67;;;39.95;;
19971;SDS011;10147;16.402;102.848;2023-03-16T10:17:59;49.40;;;38.60;;
19971;SDS011;10147;16.402;102.848;2023-03-16T10:20:35;51.17;;;39.17;;
19971;SDS011;10147;16.402;102.848;2023-03-16T10:25:56;46.80;;;36.00;;
19971;SDS011;10147;16.402;102.848;2023-03-16T10:28:28;46.40;;;37.28;;
19971;SDS011;10147;16.402;102.848;2023-03-16T10:31:00;52.97;;;37.50;;
19971;SDS011;10147;16.402;102.848;2023-03-16T10:33:33;43.45;;;35.63;;
19971;SDS011;10147;16.402;102.848;2023-03-16T10:36:11;48.75;;;37.42;;
19971;SDS011;10147;16.402;102.848;2023-03-16T10:38:46;49.75;;;37.47;;
19971;SDS011;10147;16.402;102.848;2023-03-16T10:41:26;51.45;;;37.00;;
19971;SDS011;10147;16.402;102.848;2023-03-16T10:44:08;50.63;;;38.17;;
19971;SDS011;10147;16.402;102.848;2023-03-16T10:46:42;56.05;;;39.33;;
19971;SDS011;10147;16.402;102.848;2023-03-16T10:49:24;45.75;;;37.60;;
19971;SDS011;10147;16.402;102.848;2023-03-16T10:51:57;53.55;;;40.47;;
19971;SDS011;10147;16.402;102.848;2023-03-16T10:54:38;51.67;;;39.35;;
19971;SDS011;10147;16.402;102.848;2023-03-16T11:00:06;56.42;;;41.10;;
19971;SDS011;10147;16.402;102.848;2023-03-16T11:02:58;59.42;;;42.28;;
19971;SDS011;10147;16.402;102.848;2023-03-16T11:05:31;53.60;;;40.13;;
19971;SDS011;10147;16.402;102.848;2023-03-16T11:08:17;54.35;;;41.28;;
19971;SDS011;10147;16.402;102.848;2023-03-16T11:10:57;63.53;;;39.88;;
19971;SDS011;10147;16.402;102.848;2023-03-16T11:13:37;72.82;;;47.10;;
19971;SDS011;10147;16.402;102.848;2023-03-16T11:19:40;64.80;;;47.47;;
19971;SDS011;10147;16.402;102.848;2023-03-16T11:22:42;61.35;;;42.70;;
19971;SDS011;10147;16.402;102.848;2023-03-16T11:25:20;68.50;;;45.58;;
19971;SDS011;10147;16.402;102.848;2023-03-16T11:28:15;71.00;;;44.20;;
19971;SDS011;10147;16.402;102.848;2023-03-16T11:31:16;71.93;;;42.08;;
19971;SDS011;10147;16.402;102.848;2023-03-16T11:33:52;58.72;;;44.17;;
19971;SDS011;10147;16.402;102.848;2023-03-16T11:42:51;62.95;;;43.50;;
19971;SDS011;10147;16.402;102.848;2023-03-16T11:45:46;65.50;;;46.60;;
19971;SDS011;10147;16.402;102.848;2023-03-16T11:54:53;63.05;;;48.00;;
19971;SDS011;10147;16.402;102.848;2023-03-16T12:01:00;169.70;;;132.73;;
19971;SDS011;10147;16.402;102.848;2023-03-16T12:09:58;68.38;;;46.92;;
19971;SDS011;10147;16.402;102.848;2023-03-16T12:12:55;67.72;;;49.00;;
19971;SDS011;10147;16.402;102.848;2023-03-16T12:15:48;71.30;;;47.10;;
19971;SDS011;10147;16.402;102.848;2023-03-16T12:21:27;69.75;;;51.85;;
19971;SDS011;10147;16.402;102.848;2023-03-16T12:24:16;68.50;;;50.47;;
19971;SDS011;10147;16.402;102.848;2023-03-16T12:26:53;73.80;;;52.92;;
19971;SDS011;10147;16.402;102.848;2023-03-16T12:35:38;79.63;;;52.97;;
19971;SDS011;10147;16.402;102.848;2023-03-16T12:38:28;72.20;;;49.95;;
19971;SDS011;10147;16.402;102.848;2023-03-16T12:41:26;72.75;;;49.83;;
19971;SDS011;10147;16.402;102.848;2023-03-16T12:44:40;76.13;;;50.30;;
19971;SDS011;10147;16.402;102.848;2023-03-16T12:50:47;70.68;;;51.63;;
19971;SDS011;10147;16.402;102.848;2023-03-16T13:02:14;72.43;;;53.72;;
19971;SDS011;10147;16.402;102.848;2023-03-16T13:04:48;82.85;;;54.42;;
19971;SDS011;10147;16.402;102.848;2023-03-16T13:07:36;84.03;;;57.13;;
19971;SDS011;10147;16.402;102.848;2023-03-16T13:10:16;80.05;;;57.92;;
19971;SDS011;10147;16.402;102.848;2023-03-16T13:12:51;75.68;;;55.92;;
19971;SDS011;10147;16.402;102.848;2023-03-16T13:15:28;76.75;;;57.38;;
19971;SDS011;10147;16.402;102.848;2023-03-16T13:18:04;99.03;;;67.72;;
19971;SDS011;10147;16.402;102.848;2023-03-16T13:20:57;86.35;;;59.38;;
19971;SDS011;10147;16.402;102.848;2023-03-16T13:29:24;92.88;;;64.57;;
19971;SDS011;10147;16.402;102.848;2023-03-16T13:31:59;89.53;;;63.45;;
19971;SDS011;10147;16.402;102.848;2023-03-16T13:34:45;92.35;;;64.70;;
19971;SDS011;10147;16.402;102.848;2023-03-16T13:37:23;95.53;;;66.03;;
19971;SDS011;10147;16.402;102.848;2023-03-16T13:39:58;94.50;;;64.53;;
19971;SDS011;10147;16.402;102.848;2023-03-16T13:42:32;95.38;;;66.75;;
19971;SDS011;10147;16.402;102.848;2023-03-16T13:45:09;94.25;;;67.05;;
19971;SDS011;10147;16.402;102.848;2023-03-16T13:47:44;94.15;;;63.30;;
19971;SDS011;10147;16.402;102.848;2023-03-16T13:50:18;99.13;;;67.57;;
19971;SDS011;10147;16.402;102.848;2023-03-16T13:52:57;110.63;;;74.97;;
19971;SDS011;10147;16.402;102.848;2023-03-16T13:55:31;98.88;;;70.25;;
19971;SDS011;10147;16.402;102.848;2023-03-16T13:58:12;99.65;;;68.95;;
19971;SDS011;10147;16.402;102.848;2023-03-16T14:01:03;97.90;;;66.60;;
19971;SDS011;10147;16.402;102.848;2023-03-16T14:03:42;90.28;;;65.15;;
19971;SDS011;10147;16.402;102.848;2023-03-16T14:06:23;95.28;;;67.50;;
19971;SDS011;10147;16.402;102.848;2023-03-16T14:08:57;95.28;;;68.57;;
19971;SDS011;10147;16.402;102.848;2023-03-16T14:11:31;94.38;;;66.13;;
19971;SDS011;10147;16.402;102.848;2023-03-16T14:14:12;97.22;;;65.05;;
19971;SDS011;10147;16.402;102.848;2023-03-16T14:20:04;99.15;;;66.35;;
19971;SDS011;10147;16.402;102.848;2023-03-16T14:22:45;103.22;;;67.32;;
19971;SDS011;10147;16.402;102.848;2023-03-16T14:25:20;102.43;;;69.10;;
19971;SDS011;10147;16.402;102.848;2023-03-16T14:28:00;94.47;;;64.80;;
19971;SDS011;10147;16.402;102.848;2023-03-16T14:30:35;96.45;;;65.85;;
19971;SDS011;10147;16.402;102.848;2023-03-16T14:33:18;96.90;;;66.55;;
19971;SDS011;10147;16.402;102.848;2023-03-16T14:35:59;100.05;;;69.22;;
19971;SDS011;10147;16.402;102.848;2023-03-16T14:38:39;91.20;;;62.95;;
19971;SDS011;10147;16.402;102.848;2023-03-16T14:41:21;91.55;;;68.80;;
19971;SDS011;10147;16.402;102.848;2023-03-16T14:43:56;92.05;;;66.20;;
19971;SDS011;10147;16.402;102.848;2023-03-16T14:46:32;92.07;;;67.45;;
19971;SDS011;10147;16.402;102.848;2023-03-16T14:49:24;120.55;;;74.57;;
19971;SDS011;10147;16.402;102.848;2023-03-16T14:52:20;123.72;;;100.70;;
19971;SDS011;10147;16.402;102.848;2023-03-16T14:55:08;112.50;;;76.53;;
19971;SDS011;10147;16.402;102.848;2023-03-16T14:57:48;110.03;;;76.25;;
19971;SDS011;10147;16.402;102.848;2023-03-16T15:00:20;105.15;;;76.10;;
19971;SDS011;10147;16.402;102.848;2023-03-16T15:02:53;104.97;;;75.80;;
19971;SDS011;10147;16.402;102.848;2023-03-16T15:05:34;103.65;;;75.15;;
19971;SDS011;10147;16.402;102.848;2023-03-16T15:08:14;119.95;;;77.18;;
19971;SDS011;10147;16.402;102.848;2023-03-16T15:10:47;112.90;;;76.32;;
19971;SDS011;10147;16.402;102.848;2023-03-16T15:13:19;110.25;;;77.40;;
19971;SDS011;10147;16.402;102.848;2023-03-16T15:16:12;111.45;;;79.28;;
19971;SDS011;10147;16.402;102.848;2023-03-16T15:18:45;105.78;;;74.72;;
19971;SDS011;10147;16.402;102.848;2023-03-16T15:21:18;115.85;;;76.20;;
19971;SDS011;10147;16.402;102.848;2023-03-16T15:23:53;110.28;;;79.25;;
19971;SDS011;10147;16.402;102.848;2023-03-16T15:26:26;119.57;;;77.95;;
19971;SDS011;10147;16.402;102.848;2023-03-16T15:28:58;110.32;;;78.07;;
19971;SDS011;10147;16.402;102.848;2023-03-16T15:31:32;114.15;;;82.10;;
19971;SDS011;10147;16.402;102.848;2023-03-16T15:34:02;105.15;;;78.88;;
19971;SDS011;10147;16.402;102.848;2023-03-16T15:36:33;105.65;;;73.72;;
19971;SDS011;10147;16.402;102.848;2023-03-16T15:39:04;107.47;;;77.55;;
19971;SDS011;10147;16.402;102.848;2023-03-16T15:41:36;104.95;;;79.20;;
19971;SDS011;10147;16.402;102.848;2023-03-16T15:44:14;115.72;;;80.53;;
19971;SDS011;10147;16.402;102.848;2023-03-16T15:46:48;109.40;;;78.22;;
19971;SDS011;10147;16.402;102.848;2023-03-16T15:49:19;106.05;;;78.50;;
19971;SDS011;10147;16.402;102.848;2023-03-16T15:51:49;107.00;;;81.60;;
19971;SDS011;10147;16.402;102.848;2023-03-16T15:54:19;101.72;;;77.95;;
19971;SDS011;10147;16.402;102.848;2023-03-16T15:56:51;115.47;;;78.53;;
19971;SDS011;10147;16.402;102.848;2023-03-16T15:59:23;97.05;;;74.95;;